Pagrindinis puslapis
METAR-TAF:

METAR-TAF

Oro uostai :

Jinotega, Nikaragva

platuma: 13-05N, ilguma: 085-59W, Aukštis: 985 m

Dabartinis oras

Ataskaita buvo paskelbta 31 minutes, ne 13:00 UTC
Vėjas 12 kt iš Šiaurės
Temperatūra 19°C
Drėgmė 94%
Slėgis 1014 hPa
Matomumas: 5000 m
Su prošvaistėmis ne aukštis 1600 ft
rūkana

METAR: MNJG 281300Z 36012KT 5000 BKN016 19/18 Q1014 BR

Laikas: 07:31 (13:31 UTC)


TAF: trūkstamas

Orai ataskaitas ir orų prognozės (METAR, TAF).

turimą stotys yra geltonos ir raudonos taškus žemėlapyje.

Perkelti pele per norėdami pamatyti stoties vardą.

Tada spustelėkite, norėdami matyti oro stebėjimo ir prognozės.

Norėdami pakeisti žemėlapį: spustelėkite ant žalios mygtukų su juodo kryžiaus žemyn,; žalią mygtuką su brūkšneliu, jei norite nutolinti; arba žalių rodyklių gretimoms žemėlapius.


METAR-TAF: